Time;durP1;ratioP1;P1;durP2;ratioP2;P2;SDS_P1;SDS_P2;PMS_P1;PMS_P2;Temp;Humidity;BMP_temperature;BMP_pressure;BME280_temperature;BME280_humidity;BME280_pressure;Samples;Min_cycle;Max_cycle;Signal;HPM_P1;HPM_P2
2022/01/06 00:02:14;;;;;;;10.43;2.78;;;;;;;;;;10249819;28;20446;-61
2022/01/06 00:07:14;;;;;;;6.53;2.70;;;;;;;;;;10249041;28;20106;-61
2022/01/06 00:12:17;;;;;;;3.43;2.57;;;;;;;;;;10251629;28;20557;-61
2022/01/06 00:17:41;;;;;;;3.65;2.70;;;;;;;;;;10252494;28;20448;-61
2022/01/06 00:27:59;;;;;;;;;;;;;;;;;;10253096;29;20383;-61
2022/01/06 00:33:00;;;;;;;5.90;2.53;;;;;;;;;;10251905;28;19915;-61
2022/01/06 00:38:00;;;;;;;5.13;2.70;;;;;;;;;;10251741;28;20023;-62
2022/01/06 00:43:03;;;;;;;6.18;2.72;;;;;;;;;;10251858;28;20533;-62
2022/01/06 00:48:06;;;;;;;4.78;2.35;;;;;;;;;;10251222;28;20046;-62
2022/01/06 00:53:08;;;;;;;3.35;2.50;;;;;;;;;;10250972;28;20031;-62
2022/01/06 00:58:08;;;;;;;3.80;2.22;;;;;;;;;;10251021;28;20027;-62
2022/01/06 01:03:13;;;;;;;4.47;2.38;;;;;;;;;;10248133;28;20486;-62
2022/01/06 01:08:14;;;;;;;2.78;2.17;;;;;;;;;;10247286;28;20027;-61
2022/01/06 01:13:15;;;;;;;3.95;2.17;;;;;;;;;;10250461;28;20396;-61
2022/01/06 01:18:19;;;;;;;2.80;2.25;;;;;;;;;;10250060;28;20467;-61
2022/01/06 01:23:23;;;;;;;2.90;2.40;;;;;;;;;;10250369;28;20038;-61
2022/01/06 01:28:31;;;;;;;3.72;2.40;;;;;;;;;;10250299;28;20387;-63
2022/01/06 01:33:32;;;;;;;;;;;;;;;;;;10249755;28;20067;-62
2022/01/06 01:38:33;;;;;;;5.18;2.20;;;;;;;;;;10249898;28;20385;-62
2022/01/06 01:43:34;;;;;;;3.05;2.10;;;;;;;;;;10249165;28;20035;-63
2022/01/06 01:48:37;;;;;;;7.88;1.92;;;;;;;;;;10249120;28;20078;-62
2022/01/06 01:53:38;;;;;;;2.60;2.17;;;;;;;;;;10249012;28;20263;-62
2022/01/06 01:58:40;;;;;;;3.63;1.90;;;;;;;;;;10248682;28;20260;-62
2022/01/06 02:03:40;;;;;;;3.47;2.05;;;;;;;;;;10248879;28;20387;-62
2022/01/06 02:08:41;;;;;;;2.57;1.97;;;;;;;;;;10241789;28;20035;-62
2022/01/06 02:13:52;;;;;;;2.83;2.00;;;;;;;;;;10247746;28;20489;-62
2022/01/06 02:18:53;;;;;;;4.45;1.80;;;;;;;;;;10248648;28;20023;-63
2022/01/06 02:23:54;;;;;;;2.97;2.10;;;;;;;;;;10247782;28;20387;-62
2022/01/06 02:28:54;;;;;;;4.38;1.80;;;;;;;;;;10248333;28;20453;-62
2022/01/06 02:33:54;;;;;;;3.73;1.90;;;;;;;;;;10247259;28;20027;-62
2022/01/06 02:38:55;;;;;;;2.53;1.80;;;;;;;;;;10247445;28;20540;-62
2022/01/06 02:43:56;;;;;;;1.70;1.40;;;;;;;;;;10247617;28;20972;-64
2022/01/06 02:48:56;;;;;;;1.80;1.70;;;;;;;;;;10247915;28;20035;-63
2022/01/06 02:53:57;;;;;;;2.03;1.67;;;;;;;;;;10246843;28;20027;-62
2022/01/06 02:58:57;;;;;;;1.75;1.50;;;;;;;;;;10246866;28;20091;-61
2022/01/06 03:03:57;;;;;;;2.80;1.70;;;;;;;;;;10245993;28;20023;-62
2022/01/06 03:08:58;;;;;;;2.47;1.80;;;;;;;;;;10244288;28;20445;-62
2022/01/06 03:13:59;;;;;;;2.20;1.87;;;;;;;;;;10246758;28;21027;-63
2022/01/06 03:18:59;;;;;;;2.20;1.88;;;;;;;;;;10243642;28;20715;-62
2022/01/06 03:23:59;;;;;;;2.07;1.53;;;;;;;;;;10246621;28;20027;-62
2022/01/06 03:29:00;;;;;;;1.80;1.67;;;;;;;;;;10247450;28;20028;-63
2022/01/06 03:34:00;;;;;;;1.42;1.30;;;;;;;;;;10246722;28;20548;-62
2022/01/06 03:39:01;;;;;;;1.73;1.50;;;;;;;;;;10246483;28;20110;-62
2022/01/06 03:44:01;;;;;;;1.85;1.48;;;;;;;;;;10244912;29;20448;-62
2022/01/06 03:49:01;;;;;;;4.73;1.60;;;;;;;;;;10246484;28;20114;-61
2022/01/06 03:54:02;;;;;;;1.65;1.50;;;;;;;;;;10246010;28;20476;-61
2022/01/06 03:59:03;;;;;;;3.35;1.45;;;;;;;;;;10252317;28;20034;-61
2022/01/06 04:04:03;;;;;;;1.40;1.30;;;;;;;;;;10253619;28;20019;-61
2022/01/06 04:09:04;;;;;;;2.53;1.60;;;;;;;;;;10252855;28;20031;-61
2022/01/06 04:14:04;;;;;;;1.30;1.20;;;;;;;;;;10252701;28;20482;-62
2022/01/06 04:19:05;;;;;;;2.20;1.40;;;;;;;;;;10249080;28;20430;-61
2022/01/06 04:24:06;;;;;;;1.40;1.30;;;;;;;;;;10252193;28;20453;-61
2022/01/06 04:29:06;;;;;;;2.78;1.45;;;;;;;;;;10249053;28;20023;-61
2022/01/06 04:34:07;;;;;;;1.30;1.20;;;;;;;;;;10252850;28;20383;-61
2022/01/06 04:39:07;;;;;;;2.03;1.27;;;;;;;;;;10251695;28;20379;-61
2022/01/06 04:44:07;;;;;;;1.40;1.30;;;;;;;;;;10251633;28;20736;-61
2022/01/06 04:49:08;;;;;;;1.50;1.40;;;;;;;;;;10251521;28;20473;-61
2022/01/06 04:54:08;;;;;;;2.03;1.15;;;;;;;;;;10251635;28;20027;-61
2022/01/06 04:59:09;;;;;;;2.38;1.20;;;;;;;;;;10251170;28;20024;-61
2022/01/06 05:04:09;;;;;;;1.20;1.10;;;;;;;;;;10251465;28;20027;-62
2022/01/06 05:09:10;;;;;;;1.20;1.10;;;;;;;;;;10250542;28;20109;-61
2022/01/06 05:14:10;;;;;;;1.60;1.27;;;;;;;;;;10250438;28;20539;-61
2022/01/06 05:19:10;;;;;;;1.13;1.07;;;;;;;;;;10250122;28;20516;-61
2022/01/06 05:24:15;;;;;;;3.47;1.40;;;;;;;;;;10249997;28;20837;-61
2022/01/06 05:29:16;;;;;;;2.00;1.27;;;;;;;;;;10247811;28;20082;-61
2022/01/06 05:34:16;;;;;;;1.50;1.40;;;;;;;;;;10249489;28;20443;-61
2022/01/06 05:39:16;;;;;;;1.07;1.07;;;;;;;;;;10246553;28;20525;-62
2022/01/06 05:44:17;;;;;;;1.30;1.20;;;;;;;;;;10249344;28;20035;-61
2022/01/06 05:49:17;;;;;;;1.30;1.20;;;;;;;;;;10249530;28;20477;-61
2022/01/06 05:54:18;;;;;;;0.90;0.90;;;;;;;;;;10249439;28;20969;-61
2022/01/06 05:59:18;;;;;;;2.07;1.20;;;;;;;;;;10248927;28;20412;-61
2022/01/06 06:04:18;;;;;;;1.20;1.10;;;;;;;;;;10248589;28;20666;-61
2022/01/06 06:09:19;;;;;;;1.60;1.30;;;;;;;;;;10248505;28;20055;-62
2022/01/06 06:14:19;;;;;;;1.27;1.10;;;;;;;;;;10247430;28;20057;-61
2022/01/06 06:19:19;;;;;;;1.43;1.07;;;;;;;;;;10247706;28;20434;-61
2022/01/06 06:24:22;;;;;;;1.10;1.00;;;;;;;;;;10248473;28;20465;-62
2022/01/06 06:29:22;;;;;;;0.90;0.90;;;;;;;;;;10248322;28;20034;-61
2022/01/06 06:34:23;;;;;;;1.30;1.20;;;;;;;;;;10247743;28;20439;-61
2022/01/06 06:39:23;;;;;;;1.40;1.20;;;;;;;;;;10245102;28;20033;-62
2022/01/06 06:44:23;;;;;;;1.30;1.20;;;;;;;;;;10244329;28;20831;-65
2022/01/06 06:49:24;;;;;;;1.00;1.00;;;;;;;;;;10247822;28;20059;-66
2022/01/06 06:54:26;;;;;;;1.15;1.05;;;;;;;;;;10247110;28;20035;-65
2022/01/06 06:59:27;;;;;;;1.38;1.20;;;;;;;;;;10246734;28;20383;-64
2022/01/06 07:04:27;;;;;;;1.10;1.00;;;;;;;;;;10247409;28;20035;-66
2022/01/06 07:09:28;;;;;;;1.30;1.20;;;;;;;;;;10247324;28;20541;-67
2022/01/06 07:14:28;;;;;;;1.07;0.97;;;;;;;;;;10246830;28;20130;-66
2022/01/06 07:19:29;;;;;;;1.00;1.00;;;;;;;;;;10246936;28;20422;-67
2022/01/06 07:24:30;;;;;;;1.65;1.20;;;;;;;;;;10246777;28;20525;-66
2022/01/06 07:29:30;;;;;;;1.40;1.03;;;;;;;;;;10246736;28;20451;-66
2022/01/06 07:34:30;;;;;;;1.77;1.10;;;;;;;;;;10253398;28;20470;-67
2022/01/06 07:39:31;;;;;;;1.40;1.30;;;;;;;;;;10254259;28;20442;-59
2022/01/06 07:44:31;;;;;;;1.00;0.90;;;;;;;;;;10249067;28;20905;-57
2022/01/06 07:49:32;;;;;;;1.58;1.10;;;;;;;;;;10251915;28;20031;-57
2022/01/06 07:54:32;;;;;;;1.00;1.00;;;;;;;;;;10253189;28;20086;-59
2022/01/06 07:59:32;;;;;;;2.03;1.00;;;;;;;;;;10253085;28;20035;-58
2022/01/06 08:04:33;;;;;;;1.20;1.00;;;;;;;;;;10253296;28;20155;-59
2022/01/06 08:09:33;;;;;;;1.52;1.20;;;;;;;;;;10252503;28;20438;-59
2022/01/06 08:14:35;;;;;;;1.20;1.10;;;;;;;;;;10251937;28;20079;-58
2022/01/06 08:19:35;;;;;;;1.20;1.10;;;;;;;;;;10252824;28;20064;-59
2022/01/06 08:24:35;;;;;;;1.10;1.00;;;;;;;;;;10252393;28;20129;-57
2022/01/06 08:29:37;;;;;;;1.33;1.20;;;;;;;;;;10252173;28;21061;-58
2022/01/06 08:34:38;;;;;;;1.20;1.10;;;;;;;;;;10251851;28;20183;-59
2022/01/06 08:39:38;;;;;;;5.18;1.17;;;;;;;;;;10251444;28;20114;-60
2022/01/06 08:44:39;;;;;;;1.90;1.20;;;;;;;;;;10248184;28;20450;-58
2022/01/06 08:49:41;;;;;;;3.30;1.25;;;;;;;;;;10247334;28;20067;-59
2022/01/06 08:54:41;;;;;;;9.00;1.85;;;;;;;;;;10250182;28;20447;-59
2022/01/06 08:59:42;;;;;;;31.42;2.63;;;;;;;;;;10250148;28;20102;-60
2022/01/06 09:04:42;;;;;;;12.63;2.30;;;;;;;;;;10250806;28;20122;-60
2022/01/06 09:09:42;;;;;;;22.38;3.65;;;;;;;;;;10250239;28;20430;-61
2022/01/06 09:14:48;;;;;;;17.23;3.33;;;;;;;;;;10248959;28;20423;-60
2022/01/06 09:19:49;;;;;;;15.18;3.65;;;;;;;;;;10248473;29;20465;-63
2022/01/06 09:24:49;;;;;;;14.93;3.63;;;;;;;;;;10250532;28;20499;-60
2022/01/06 09:29:52;;;;;;;92.72;5.97;;;;;;;;;;10249147;28;20531;-52
2022/01/06 09:34:53;;;;;;;22.92;4.00;;;;;;;;;;10248778;28;20031;-54
2022/01/06 09:39:53;;;;;;;49.15;4.63;;;;;;;;;;10249582;28;20031;-66
2022/01/06 09:44:54;;;;;;;21.48;4.43;;;;;;;;;;10249085;28;20058;-56
2022/01/06 09:49:55;;;;;;;29.48;4.38;;;;;;;;;;10246206;28;20027;-52
2022/01/06 09:54:55;;;;;;;25.63;4.53;;;;;;;;;;10246843;28;20039;-50
2022/01/06 09:59:55;;;;;;;23.07;3.60;;;;;;;;;;10245928;28;20591;-55
2022/01/06 10:05:00;;;;;;;32.57;4.57;;;;;;;;;;10248109;28;20446;-51
2022/01/06 10:10:14;;;;;;;29.60;3.70;;;;;;;;;;10248871;28;20028;-60
2022/01/06 10:15:19;;;;;;;23.88;3.92;;;;;;;;;;10248092;28;20122;-50
2022/01/06 10:20:23;;;;;;;10.57;2.85;;;;;;;;;;10248203;28;20024;-56
2022/01/06 10:25:26;;;;;;;19.77;3.85;;;;;;;;;;10248194;28;20085;-57
2022/01/06 10:30:26;;;;;;;11.35;2.97;;;;;;;;;;10248363;28;20034;-52
2022/01/06 10:35:27;;;;;;;21.02;2.80;;;;;;;;;;10248137;28;20479;-49
2022/01/06 10:44:15;;;;;;;8.00;2.67;;;;;;;;;;10485548;28;20617;-55
2022/01/06 10:49:16;;;;;;;16.70;3.40;;;;;;;;;;10486306;28;20040;-54
2022/01/06 10:54:20;;;;;;;8.50;3.20;;;;;;;;;;10485397;28;20430;-57
2022/01/06 10:59:29;;;;;;;9.45;2.78;;;;;;;;;;10482019;28;20040;-51
2022/01/06 11:04:30;;;;;;;16.15;3.35;;;;;;;;;;10485203;28;20024;-54
2022/01/06 11:09:30;;;;;;;15.35;3.65;;;;;;;;;;10480961;28;20466;-58
2022/01/06 11:14:32;;;;;;;17.10;3.97;;;;;;;;;;10484225;28;20448;-59
2022/01/06 11:19:32;;;;;;;15.95;3.63;;;;;;;;;;10483335;28;20028;-58
2022/01/06 11:24:34;;;;;;;12.63;2.90;;;;;;;;;;10484459;28;20035;-59
2022/01/06 11:29:37;;;;;;;15.07;3.25;;;;;;;;;;10484402;28;20042;-57
2022/01/06 11:34:38;;;;;;;8.52;2.47;;;;;;;;;;10482581;28;20393;-58
2022/01/06 11:39:39;;;;;;;4.97;2.63;;;;;;;;;;10483617;28;20040;-60
2022/01/06 11:44:48;;;;;;;11.95;2.80;;;;;;;;;;10483103;28;20033;-59
2022/01/06 11:49:52;;;;;;;13.93;3.10;;;;;;;;;;10483308;28;20058;-57
2022/01/06 11:54:54;;;;;;;9.25;3.42;;;;;;;;;;10460001;28;20025;-58
2022/01/06 11:59:54;;;;;;;8.73;2.90;;;;;;;;;;10455570;28;20029;-62
2022/01/06 12:04:59;;;;;;;6.72;3.28;;;;;;;;;;10455182;28;20484;-59
2022/01/06 12:10:07;;;;;;;7.80;3.15;;;;;;;;;;10450517;28;20090;-58
2022/01/06 12:15:09;;;;;;;7.63;2.70;;;;;;;;;;10451261;28;20025;-59
2022/01/06 12:20:10;;;;;;;8.80;2.70;;;;;;;;;;10454401;28;20108;-58
2022/01/06 12:25:10;;;;;;;8.45;2.83;;;;;;;;;;10454721;28;20531;-58
2022/01/06 12:30:12;;;;;;;8.95;2.60;;;;;;;;;;10453999;28;20170;-57
2022/01/06 12:35:12;;;;;;;5.32;2.70;;;;;;;;;;10454159;28;20025;-58
2022/01/06 12:40:12;;;;;;;5.17;2.53;;;;;;;;;;10453999;28;20041;-61
2022/01/06 12:45:13;;;;;;;7.15;2.70;;;;;;;;;;10453111;28;20112;-57
2022/01/06 12:50:13;;;;;;;7.05;2.33;;;;;;;;;;10453615;28;20059;-64
2022/01/06 12:55:14;;;;;;;5.23;2.70;;;;;;;;;;10453900;28;20472;-58
2022/01/06 13:00:15;;;;;;;9.00;2.30;;;;;;;;;;10453389;28;20120;-58
2022/01/06 13:05:15;;;;;;;5.03;2.53;;;;;;;;;;10453199;28;20512;-59
2022/01/06 13:10:17;;;;;;;5.70;2.65;;;;;;;;;;10453664;28;20484;-59
2022/01/06 13:15:17;;;;;;;9.40;2.53;;;;;;;;;;10446240;28;20021;-57
2022/01/06 13:20:17;;;;;;;8.10;2.90;;;;;;;;;;10452463;28;20033;-58
2022/01/06 13:25:21;;;;;;;7.37;2.33;;;;;;;;;;10452426;28;20537;-58
2022/01/06 13:30:49;;;;;;;6.55;2.40;;;;;;;;;;10451983;28;20453;-59
2022/01/06 13:35:51;;;;;;;6.88;2.72;;;;;;;;;;10451625;28;20048;-57
2022/01/06 13:40:54;;;;;;;4.43;2.22;;;;;;;;;;10451519;28;20071;-59
2022/01/06 13:46:08;;;;;;;8.38;2.63;;;;;;;;;;10450516;28;20067;-58
2022/01/06 13:51:14;;;;;;;4.63;2.10;;;;;;;;;;10451804;28;20025;-63
2022/01/06 13:56:20;;;;;;;6.72;2.42;;;;;;;;;;10451574;28;20025;-58
2022/01/06 14:01:23;;;;;;;8.05;2.33;;;;;;;;;;10449101;28;20037;-59
2022/01/06 14:06:25;;;;;;;4.35;2.20;;;;;;;;;;10448188;28;20362;-58
2022/01/06 14:11:26;;;;;;;11.45;2.33;;;;;;;;;;10449612;28;20116;-58
2022/01/06 14:16:26;;;;;;;4.20;2.03;;;;;;;;;;10446099;28;20029;-55
2022/01/06 14:21:27;;;;;;;7.10;2.63;;;;;;;;;;10447363;28;20113;-56
2022/01/06 14:26:27;;;;;;;3.35;2.15;;;;;;;;;;10450447;28;20438;-55
2022/01/06 14:31:28;;;;;;;8.95;2.70;;;;;;;;;;10450128;28;20279;-54
2022/01/06 14:36:28;;;;;;;8.07;2.30;;;;;;;;;;10450081;28;20045;-58
2022/01/06 14:41:29;;;;;;;10.95;2.22;;;;;;;;;;10448595;28;20049;-59
2022/01/06 14:46:30;;;;;;;4.15;2.10;;;;;;;;;;10446505;28;20106;-62
2022/01/06 14:51:33;;;;;;;7.85;2.33;;;;;;;;;;10449471;28;20499;-64
2022/01/06 14:56:33;;;;;;;4.50;2.22;;;;;;;;;;10449560;28;20021;-59
2022/01/06 15:01:33;;;;;;;6.90;2.28;;;;;;;;;;10448096;28;20029;-59
2022/01/06 15:06:34;;;;;;;3.53;1.97;;;;;;;;;;10449383;28;20536;-59
2022/01/06 15:11:34;;;;;;;5.27;1.97;;;;;;;;;;10447064;28;20445;-61
2022/01/06 15:16:35;;;;;;;4.10;2.10;;;;;;;;;;10447934;28;20107;-60
2022/01/06 15:21:37;;;;;;;5.95;2.22;;;;;;;;;;10445813;28;20040;-61
2022/01/06 15:26:37;;;;;;;3.55;1.77;;;;;;;;;;10446474;28;20402;-64
2022/01/06 15:31:38;;;;;;;3.90;1.80;;;;;;;;;;10456118;28;20404;-57
2022/01/06 15:36:38;;;;;;;3.80;2.33;;;;;;;;;;10456312;28;20445;-59
2022/01/06 15:41:39;;;;;;;3.78;1.88;;;;;;;;;;10455259;28;20075;-59
2022/01/06 15:46:42;;;;;;;6.53;1.80;;;;;;;;;;10453765;28;20025;-62
2022/01/06 15:51:42;;;;;;;5.38;1.60;;;;;;;;;;10454236;28;20033;-59
2022/01/06 15:56:45;;;;;;;3.47;1.60;;;;;;;;;;10454690;28;20029;-59
2022/01/06 16:07:00;;;;;;;8.88;2.10;;;;;;;;;;10453849;28;20114;-58
2022/01/06 16:12:00;;;;;;;3.15;1.90;;;;;;;;;;10454648;28;20342;-59
2022/01/06 16:17:01;;;;;;;3.75;1.67;;;;;;;;;;10455209;28;20017;-55
2022/01/06 16:22:01;;;;;;;2.58;1.77;;;;;;;;;;10455206;28;20033;-59
2022/01/06 16:27:02;;;;;;;2.42;1.55;;;;;;;;;;10452182;28;20029;-61
2022/01/06 16:32:32;;;;;;;3.05;1.88;;;;;;;;;;10451820;28;20025;-60
2022/01/06 16:37:33;;;;;;;4.80;1.80;;;;;;;;;;10453296;28;20120;-55
2022/01/06 16:42:34;;;;;;;3.70;2.15;;;;;;;;;;10453614;28;20535;-61
2022/01/06 16:47:35;;;;;;;4.82;1.90;;;;;;;;;;10454150;28;20107;-58
2022/01/06 16:52:37;;;;;;;2.70;1.73;;;;;;;;;;10453682;28;20021;-55
2022/01/06 16:57:37;;;;;;;3.20;1.85;;;;;;;;;;10450942;28;20028;-58
2022/01/06 17:02:39;;;;;;;2.35;1.92;;;;;;;;;;10451814;28;20030;-59
2022/01/06 17:07:40;;;;;;;2.25;1.80;;;;;;;;;;10451571;28;20503;-55
2022/01/06 17:12:40;;;;;;;3.88;2.00;;;;;;;;;;10450645;28;20035;-49
2022/01/06 17:17:41;;;;;;;3.65;2.13;;;;;;;;;;10451354;28;20250;-51
2022/01/06 17:22:42;;;;;;;4.70;2.35;;;;;;;;;;10451506;28;20381;-60
2022/01/06 17:27:42;;;;;;;2.28;2.03;;;;;;;;;;10451652;28;20537;-57
2022/01/06 17:32:46;;;;;;;4.83;2.10;;;;;;;;;;10447431;28;20048;-55
2022/01/06 17:37:47;;;;;;;5.63;2.20;;;;;;;;;;10447814;28;20427;-49
2022/01/06 17:42:49;;;;;;;8.73;2.45;;;;;;;;;;10450827;28;20072;-57
2022/01/06 17:47:50;;;;;;;4.70;2.67;;;;;;;;;;10451047;28;20037;-56
2022/01/06 17:52:50;;;;;;;4.35;2.92;;;;;;;;;;10449303;28;20025;-60
2022/01/06 17:57:51;;;;;;;8.65;4.55;;;;;;;;;;10450548;28;20082;-59
2022/01/06 18:02:52;;;;;;;9.85;4.10;;;;;;;;;;10450101;28;20025;-59
2022/01/06 18:08:24;;;;;;;11.07;4.95;;;;;;;;;;10450273;28;20182;-59
2022/01/06 18:13:22;;;;;;;12.38;6.85;;;;;;;;;;10427891;22;20536;-57
2022/01/06 18:18:23;;;;;;;13.40;7.50;;;;;;;;;;10367591;28;20030;-57
2022/01/06 18:23:23;;;;;;;19.17;9.70;;;;;;;;;;10367783;28;20405;-58
2022/01/06 18:28:24;;;;;;;21.70;11.65;;;;;;;;;;10367856;28;20531;-53
2022/01/06 18:33:24;;;;;;;25.45;13.75;;;;;;;;;;10367451;28;20521;-57
2022/01/06 18:38:25;;;;;;;32.00;15.63;;;;;;;;;;10361201;28;20030;-60
2022/01/06 18:43:25;;;;;;;32.60;16.83;;;;;;;;;;10367005;28;20482;-59
2022/01/06 18:48:25;;;;;;;29.37;17.10;;;;;;;;;;10367656;28;20030;-59
2022/01/06 18:53:27;;;;;;;36.60;19.50;;;;;;;;;;10367878;28;20440;-57
2022/01/06 18:58:28;;;;;;;37.97;20.73;;;;;;;;;;10367295;28;20104;-58
2022/01/06 19:03:28;;;;;;;44.22;22.67;;;;;;;;;;10371808;28;20030;-57
2022/01/06 19:08:29;;;;;;;47.65;24.35;;;;;;;;;;10376339;28;20069;-54
2022/01/06 19:13:33;;;;;;;53.35;26.25;;;;;;;;;;10374637;28;20543;-57
2022/01/06 19:18:33;;;;;;;48.72;25.98;;;;;;;;;;10375127;28;20029;-57
2022/01/06 19:23:33;;;;;;;49.75;25.55;;;;;;;;;;10375157;28;20389;-59
2022/01/06 19:28:34;;;;;;;54.27;27.03;;;;;;;;;;10374128;28;20433;-59
2022/01/06 19:33:34;;;;;;;46.80;25.92;;;;;;;;;;10374261;28;20443;-59
2022/01/06 19:38:36;;;;;;;50.73;28.47;;;;;;;;;;10371106;28;20018;-59
2022/01/06 19:43:36;;;;;;;58.35;30.50;;;;;;;;;;10373906;28;20463;-59
2022/01/06 19:48:37;;;;;;;55.87;29.33;;;;;;;;;;10370652;28;20462;-58
2022/01/06 19:53:37;;;;;;;54.75;30.45;;;;;;;;;;10372208;28;20440;-59
2022/01/06 19:58:39;;;;;;;55.67;30.03;;;;;;;;;;10373268;28;20022;-58
2022/01/06 20:03:40;;;;;;;60.40;31.77;;;;;;;;;;10372612;28;20475;-58
2022/01/06 20:08:40;;;;;;;57.92;31.65;;;;;;;;;;10373209;28;20026;-58
2022/01/06 20:13:40;;;;;;;69.33;33.03;;;;;;;;;;10366887;28;20580;-59
2022/01/06 20:18:41;;;;;;;60.70;32.50;;;;;;;;;;10370579;28;20447;-58
2022/01/06 20:23:41;;;;;;;55.87;29.47;;;;;;;;;;10371753;28;20062;-59
2022/01/06 20:28:42;;;;;;;52.57;26.63;;;;;;;;;;10371134;28;20459;-59
2022/01/06 20:33:44;;;;;;;48.65;27.77;;;;;;;;;;10370546;28;20046;-58
2022/01/06 20:38:45;;;;;;;47.65;25.77;;;;;;;;;;10371056;28;20026;-59
2022/01/06 20:43:45;;;;;;;55.38;26.25;;;;;;;;;;10371019;28;20436;-58
2022/01/06 20:54:04;;;;;;;61.15;26.33;;;;;;;;;;10370299;28;20842;-59
2022/01/06 20:59:05;;;;;;;60.60;25.92;;;;;;;;;;10370321;28;20022;-59
2022/01/06 21:04:05;;;;;;;48.72;24.92;;;;;;;;;;10370174;28;20076;-58
2022/01/06 21:09:07;;;;;;;54.57;24.00;;;;;;;;;;10366767;28;20030;-58
2022/01/06 21:14:08;;;;;;;54.25;24.80;;;;;;;;;;10366597;28;20470;-59
2022/01/06 21:19:09;;;;;;;48.67;23.23;;;;;;;;;;10367002;28;20489;-59
2022/01/06 21:24:11;;;;;;;48.03;23.55;;;;;;;;;;10368529;28;20032;-58
2022/01/06 21:29:13;;;;;;;43.75;22.60;;;;;;;;;;10369701;28;20152;-59
2022/01/06 21:34:14;;;;;;;40.70;22.35;;;;;;;;;;10368935;28;20157;-58
2022/01/06 21:39:20;;;;;;;37.95;21.13;;;;;;;;;;10367742;28;20030;-58
2022/01/06 21:44:21;;;;;;;37.35;20.60;;;;;;;;;;10365003;28;20033;-59
2022/01/06 21:49:21;;;;;;;41.13;20.93;;;;;;;;;;10366534;28;20037;-58
2022/01/06 21:54:22;;;;;;;37.13;20.83;;;;;;;;;;10368875;28;20528;-58
2022/01/06 21:59:22;;;;;;;31.83;19.63;;;;;;;;;;10364364;28;20032;-58
2022/01/06 22:04:23;;;;;;;36.22;20.88;;;;;;;;;;10368152;28;20025;-59
2022/01/06 22:09:24;;;;;;;37.70;21.35;;;;;;;;;;10368640;28;20441;-59
2022/01/06 22:14:24;;;;;;;39.47;21.02;;;;;;;;;;10368137;28;20092;-60
2022/01/06 22:19:25;;;;;;;40.67;22.30;;;;;;;;;;10368318;28;20045;-59
2022/01/06 22:24:25;;;;;;;39.37;21.17;;;;;;;;;;10367772;28;20029;-59
2022/01/06 22:29:25;;;;;;;53.93;23.57;;;;;;;;;;10368063;28;20431;-59
2022/01/06 22:34:26;;;;;;;57.27;23.73;;;;;;;;;;10365909;28;20116;-59
2022/01/06 22:39:26;;;;;;;48.33;22.70;;;;;;;;;;10367004;28;20440;-58
2022/01/06 22:44:29;;;;;;;59.03;23.15;;;;;;;;;;10366126;28;21018;-59
2022/01/06 22:49:31;;;;;;;40.78;20.83;;;;;;;;;;10365977;28;20643;-58
2022/01/06 22:54:32;;;;;;;44.53;23.35;;;;;;;;;;10366530;28;20030;-59
2022/01/06 22:59:33;;;;;;;48.60;23.02;;;;;;;;;;10361754;28;20026;-59
2022/01/06 23:04:34;;;;;;;37.53;23.27;;;;;;;;;;10366267;28;20034;-58
2022/01/06 23:09:35;;;;;;;46.80;22.95;;;;;;;;;;10366421;28;20482;-59
2022/01/06 23:14:36;;;;;;;46.42;24.40;;;;;;;;;;10364188;28;20172;-58
2022/01/06 23:19:36;;;;;;;42.85;22.98;;;;;;;;;;10364795;28;20044;-58
2022/01/06 23:24:37;;;;;;;39.77;22.53;;;;;;;;;;10365610;28;20029;-59
2022/01/06 23:29:38;;;;;;;44.60;23.53;;;;;;;;;;10366661;28;20808;-59
2022/01/06 23:34:40;;;;;;;42.03;22.65;;;;;;;;;;10365258;28;20037;-57
2022/01/06 23:39:40;;;;;;;39.47;22.65;;;;;;;;;;10365179;28;20433;-57
2022/01/06 23:44:41;;;;;;;57.83;24.92;;;;;;;;;;10366125;28;20092;-60
2022/01/06 23:49:41;;;;;;;43.83;21.60;;;;;;;;;;10370456;28;20036;-59
2022/01/06 23:54:42;;;;;;;43.83;21.57;;;;;;;;;;10371556;28;20876;-58
2022/01/06 23:59:42;;;;;;;46.75;20.80;;;;;;;;;;10366813;28;20038;-59
